Alvin, Illinois
Current Conditions -  °F | °C
As of 1:15 AM on Friday 19 Dec 2014 (Local Time) from KDNV Reporting Station
Clear Clear  
Wind Chill: -11°   Ceiling: Unl
Heat Index: -7°   Visibility: 7mi
Dew Point: -8°   Wind: 6mph
Humidity: 93%   Direction: 330°NNW
Pressure: 30.25"   Gusts: NA
Location:  40.31°N, 87.61°W
Report Text: KDNV 190715Z AUTO 33005KT 7SM CLR M07/M08 A3025 RMK AO2 T10661076
Loading
Personal Weather Stations






























Interactive Weather Map New forecast layout! Learn more

10-Day Weather Forecast

Advertisements
Track Severe Weather on mobile